Luke Air Force Base
KLUF : now visible

Airfield :











YOU CAN JOIN US ON...

 
LOGIN :

Register | Disclaimer

   EN    FR    IT 

 









Legend :    VFR   Marginal VFR   IFR   Intensive IFR   Very Intensive IFR
Visi :
Ceiling :
>= 8 km
>= 3000ft
5 to 8 km
1000 to 3000 ft
1500m to 5 km
500 to 1000 ft
800 to 1500m
200 to 500 ft
< 800m
< 200 ft
Symbols :   Thunderstorms  Fog  Heavy snow  Heavy precipitations  Wind > 20 kt






- Airport Elevation : 1085 ft


KLUF - Luke Air Force Base

CURRENT METAR :
  • 220356Z AUTO 22004KT 10SM FEW024 OVC044 13/ A3009 RMK AO2 SLP188 $

EXPIRED METARs :
  • 220346Z AUTO 21004KT 10SM BKN024 OVC044 13/ A3009 RMK AO2 CIG 024V045 BKN V SCT SLP188 $
  • 220256Z AUTO 23006KT 10SM OVC029 13/ A3010 RMK AO2 OVC V BKN SLP191 53011 $
  • 220236Z AUTO 23003KT 10SM BKN029 OVC036 13/13 A3009 RMK AO2 CIG 029V036 SLP187 $
  • 220216Z AUTO 22004KT 10SM OVC030 13/13 A3009 RMK AO2 SLP187 $
  • 220156Z AUTO 22004KT 10SM BKN030 OVC037 13/13 A3008 RMK AO2 SLP184 T01280128 $

TAF TAF KLUF
Valid from the 22 at 04:00 until the 23 at 10:00 UTC


220400Z 2204/2310 VRB06KT 8000 BR FEW010 SCT025 BKN070 QNH3008INS
BECMG 2207/2208 VRB06KT 6000 BR FEW015 SCT050 BKN150 QNH3010INS
BECMG 2215/2216 VRB06KT 9999 NSW FEW050 SCT200 QNH3009INS TX16/2222Z TN06/2213Z



MET'MAP, your aeronautical weather chart ! - Copyright ORBIFLY December 2007 - Disclaimer

ORBIFLY MET'MAP TEAM :

Programming & Development : Alexandra Zaïnal
Concept & original design : Baudouin d'Aumeries
Assistance for programming : Marc-Olivier Méhu
Technical & hardware support : Manuel Goepfert

Contact : metmap@orbifly.com




SOURCES & CREDITS :

   NOAA       Earth
Advisory